Observation data for Childress on 11/18/2019      Previous  Date       Current Mesonet Observations  Soil Data  Daily Summary Page  Observations in Plain Language
KCXS 180600Z 21008KT 10/00 A3003 RMK A01 T00960003  RH  053%=      5-min Rain = 0
KCXS 180605Z 21008KT 10/00 A3002 RMK A01 T00950003  RH  053%=      5-min Rain = 0
KCXS 180610Z 21008KT 09/00 A3002 RMK A01 T00940003  RH  053%=      5-min Rain = 0
KCXS 180615Z 22008KT 09/00 A3002 RMK A01 T00940003  RH  053%=      5-min Rain = 0
KCXS 180620Z 22008KT 10/00 A3002 RMK A01 T00960003  RH  053%=      5-min Rain = 0
KCXS 180625Z 22007KT 10/00 A3001 RMK A01 T00950003  RH  053%=      5-min Rain = 0
KCXS 180630Z 22007KT 09/00 A3001 RMK A01 T00940003  RH  054%=      5-min Rain = 0
KCXS 180635Z 22008KT 09/00 A3001 RMK A01 T00930003  RH  054%=      5-min Rain = 0
KCXS 180640Z 22008KT 09/00 A3001 RMK A01 T00910003  RH  055%=      5-min Rain = 0
KCXS 180645Z 22008KT 09/00 A3001 RMK A01 T00920003  RH  055%=      5-min Rain = 0
KCXS 180650Z 22007KT 09/00 A3001 RMK A01 T00900003  RH  055%=      5-min Rain = 0
KCXS 180655Z 23007KT 09/00 A3001 RMK A01 T00860002  RH  056%=      5-min Rain = 0
KCXS 180700Z 23008KT 08/00 A3001 RMK A01 T00820002  RH  057%=      5-min Rain = 0
KCXS 180705Z 24008KT 08/00 A3001 RMK A01 T00810002  RH  058%=      5-min Rain = 0
KCXS 180710Z 24008KT 08/00 A3001 RMK A01 T00820003  RH  058%=      5-min Rain = 0
KCXS 180715Z 25007KT 08/00 A3001 RMK A01 T00790002  RH  059%=      5-min Rain = 0
KCXS 180720Z 26007KT 07/00 A3001 RMK A01 T00720001  RH  061%=      5-min Rain = 0
KCXS 180725Z 26007KT 07/00 A3001 RMK A01 T00700002  RH  062%=      5-min Rain = 0
KCXS 180730Z 26006KT 07/00 A3001 RMK A01 T00690001  RH  063%=      5-min Rain = 0
KCXS 180735Z 26006KT 07/00 A3001 RMK A01 T00670001  RH  063%=      5-min Rain = 0
KCXS 180740Z 25006KT 07/00 A3001 RMK A01 T00660000  RH  064%=      5-min Rain = 0
KCXS 180745Z 25006KT 07/00 A3001 RMK A01 T00670001  RH  063%=      5-min Rain = 0
KCXS 180750Z 25007KT 07/00 A3001 RMK A01 T00680001  RH  063%=      5-min Rain = 0
KCXS 180755Z 25008KT 07/00 A3001 RMK A01 T00700002  RH  063%=      5-min Rain = 0
KCXS 180800Z 25007KT 07/00 A3001 RMK A01 T00700002  RH  063%=      5-min Rain = 0
KCXS 180805Z 25007KT 07/00 A3001 RMK A01 T00690001  RH  063%=      5-min Rain = 0
KCXS 180810Z 25007KT 07/00 A3001 RMK A01 T00680001  RH  063%=      5-min Rain = 0
KCXS 180815Z 25007KT 07/00 A30 RMK A01 T00680001  RH  063%=      5-min Rain = 0
KCXS 180820Z 25008KT 07/00 A30 RMK A01 T00680001  RH  063%=      5-min Rain = 0
KCXS 180825Z 25007KT 07/00 A30 RMK A01 T00670001  RH  064%=      5-min Rain = 0
KCXS 180830Z 25007KT 07/00 A2999 RMK A01 T00660001  RH  064%=      5-min Rain = 0
KCXS 180835Z 24007KT 07/00 A2999 RMK A01 T00660001  RH  064%=      5-min Rain = 0
KCXS 180840Z 24008KT 07/00 A2999 RMK A01 T00650001  RH  064%=      5-min Rain = 0
KCXS 180845Z 23007KT 07/00 A2999 RMK A01 T00660002  RH  064%=      5-min Rain = 0
KCXS 180850Z 23007KT 07/00 A2998 RMK A01 T00660002  RH  064%=      5-min Rain = 0
KCXS 180855Z 22008KT 07/00 A2998 RMK A01 T00660002  RH  064%=      5-min Rain = 0
KCXS 180900Z 22008KT 07/00 A2998 RMK A01 T00700004  RH  064%=      5-min Rain = 0
KCXS 180905Z 22008KT 07/00 A2998 RMK A01 T00710004  RH  063%=      5-min Rain = 0
KCXS 180910Z 22008KT 07/00 A2997 RMK A01 T00690003  RH  064%=      5-min Rain = 0
KCXS 180915Z 22008KT 07/00 A2997 RMK A01 T00670003  RH  064%=      5-min Rain = 0
KCXS 180920Z 22008KT 07/00 A2997 RMK A01 T00660003  RH  065%=      5-min Rain = 0
KCXS 180925Z 22008KT 06/00 A2997 RMK A01 T00640002  RH  065%=      5-min Rain = 0
KCXS 180930Z 22008KT 06/00 A2997 RMK A01 T00640003  RH  065%=      5-min Rain = 0
KCXS 180935Z 21008KT 07/00 A2997 RMK A01 T00660003  RH  065%=      5-min Rain = 0
KCXS 180940Z 22008KT 07/00 A2996 RMK A01 T00650003  RH  065%=      5-min Rain = 0
KCXS 180945Z 22008KT 06/00 A2996 RMK A01 T00630003  RH  066%=      5-min Rain = 0
KCXS 180950Z 23007KT 06/00 A2996 RMK A01 T00600002  RH  067%=      5-min Rain = 0
KCXS 180955Z 23008KT 06/00 A2996 RMK A01 T00560001  RH  068%=      5-min Rain = 0
KCXS 181000Z 24008KT 06/00 A2996 RMK A01 T00560001  RH  068%=      5-min Rain = 0
KCXS 181005Z 24007KT 05/00 A2996 RMK A01 T00530000  RH  069%=      5-min Rain = 0
KCXS 181010Z 25007KT 05/00 A2996 RMK A01 T005000-0  RH  071%=      5-min Rain = 0
KCXS 181015Z 25007KT 05/00 A2996 RMK A01 T004800-0  RH  072%=      5-min Rain = 0
KCXS 181020Z 25007KT 05/M00 A2996 RMK A01 T00461001  RH  072%=      5-min Rain = 0
KCXS 181025Z 25007KT 05/00 A2996 RMK A01 T004700-0  RH  072%=      5-min Rain = 0
KCXS 181030Z 24008KT 05/00 A2995 RMK A01 T00490000  RH  072%=      5-min Rain = 0
KCXS 181035Z 23008KT 05/00 A2996 RMK A01 T00530002  RH  071%=      5-min Rain = 0
KCXS 181040Z 24007KT 06/00 A2996 RMK A01 T00550002  RH  069%=      5-min Rain = 0
KCXS 181045Z 24007KT 05/00 A2996 RMK A01 T00530002  RH  070%=      5-min Rain = 0
KCXS 181050Z 24008KT 05/00 A2996 RMK A01 T00520002  RH  071%=      5-min Rain = 0
KCXS 181055Z 24008KT 05/00 A2996 RMK A01 T00530003  RH  071%=      5-min Rain = 0
KCXS 181100Z 24008KT 06/00 A2995 RMK A01 T00550004  RH  071%=      5-min Rain = 0
KCXS 181105Z 24008KT 06/01 A2995 RMK A01 T00550005  RH  071%=      5-min Rain = 0
KCXS 181110Z 24008KT 06/01 A2995 RMK A01 T00550005  RH  071%=      5-min Rain = 0
KCXS 181115Z 24008KT 06/01 A2996 RMK A01 T00550005  RH  071%=      5-min Rain = 0
KCXS 181120Z 23009KT 06/01 A2995 RMK A01 T00560005  RH  071%=      5-min Rain = 0
KCXS 181125Z 23009KT 06/01 A2995 RMK A01 T00590006  RH  070%=      5-min Rain = 0
KCXS 181130Z 23009KT 06/01 A2995 RMK A01 T00620007  RH  069%=      5-min Rain = 0
KCXS 181135Z 23009KT 06/01 A2995 RMK A01 T00630007  RH  068%=      5-min Rain = 0
KCXS 181140Z 23008KT 06/01 A2995 RMK A01 T00630007  RH  068%=      5-min Rain = 0
KCXS 181145Z 23008KT 06/01 A2995 RMK A01 T00610006  RH  069%=      5-min Rain = 0
KCXS 181150Z 23008KT 06/01 A2995 RMK A01 T00580005  RH  070%=      5-min Rain = 0
KCXS 181155Z 23007KT 05/00 A2995 RMK A01 T00540003  RH  071%=      5-min Rain = 0
KCXS 181200Z 23007KT 05/00 A2994 RMK A01 T00510003  RH  072%=      5-min Rain = 0
KCXS 181205Z 23007KT 05/00 A2994 RMK A01 T00490002  RH  072%=      5-min Rain = 0
KCXS 181210Z 23007KT 05/00 A2994 RMK A01 T00470001  RH  073%=      5-min Rain = 0
KCXS 181215Z 23008KT 05/00 A2994 RMK A01 T00460001  RH  073%=      5-min Rain = 0
KCXS 181220Z 23008KT 05/00 A2995 RMK A01 T00460001  RH  074%=      5-min Rain = 0
KCXS 181225Z 23008KT 05/00 A2994 RMK A01 T00450001  RH  074%=      5-min Rain = 0
KCXS 181230Z 22008KT 05/00 A2995 RMK A01 T00450001  RH  074%=      5-min Rain = 0
KCXS 181235Z 23008KT 05/00 A2995 RMK A01 T00460002  RH  074%=      5-min Rain = 0
KCXS 181240Z 23010KT 05/00 A2994 RMK A01 T00470003  RH  074%=      5-min Rain = 0
KCXS 181245Z 22010KT 05/01 A2994 RMK A01 T00510006  RH  074%=      5-min Rain = 0
KCXS 181250Z 22009KT 06/01 A2994 RMK A01 T00580008  RH  071%=      5-min Rain = 0
KCXS 181255Z 23009KT 06/01 A2994 RMK A01 T00640010  RH  069%=      5-min Rain = 0
KCXS 181300Z 23009KT 07/01 A2995 RMK A01 T00680011  RH  068%=      5-min Rain = 0
KCXS 181305Z 23009KT 07/01 A2994 RMK A01 T00700011  RH  067%=      5-min Rain = 0
KCXS 181310Z 23009KT 07/01 A2994 RMK A01 T00680011  RH  068%=      5-min Rain = 0
KCXS 181315Z 23009KT 07/01 A2994 RMK A01 T00700011  RH  067%=      5-min Rain = 0
KCXS 181320Z 22009KT 07/01 A2994 RMK A01 T00730012  RH  066%=      5-min Rain = 0
KCXS 181325Z 23008KT 08/01 A2995 RMK A01 T00780013  RH  064%=      5-min Rain = 0
KCXS 181330Z 22007KT 08/01 A2995 RMK A01 T00780012  RH  064%=      5-min Rain = 0
KCXS 181335Z 23005KT 07/01 A2996 RMK A01 T00740011  RH  065%=      5-min Rain = 0
KCXS 181340Z 24005KT 07/01 A2996 RMK A01 T00720011  RH  066%=      5-min Rain = 0
KCXS 181345Z 25005KT 07/01 A2996 RMK A01 T00680010  RH  067%=      5-min Rain = 0
KCXS 181350Z 25005KT 07/01 A2996 RMK A01 T00650009  RH  068%=      5-min Rain = 0
KCXS 181355Z 26005KT 06/01 A2996 RMK A01 T00640010  RH  069%=      5-min Rain = 0
KCXS 181400Z 24006KT 07/01 A2995 RMK A01 T00670011  RH  068%=      5-min Rain = 0
KCXS 181405Z 22006KT 07/01 A2995 RMK A01 T00720013  RH  067%=      5-min Rain = 0
KCXS 181410Z 22008KT 08/01 A2994 RMK A01 T00770014  RH  065%=      5-min Rain = 0
KCXS 181415Z 22008KT 08/02 A2994 RMK A01 T00820016  RH  064%=      5-min Rain = 0
KCXS 181420Z 22008KT 09/02 A2994 RMK A01 T00860016  RH  062%=      5-min Rain = 0
KCXS 181425Z 21008KT 09/02 A2994 RMK A01 T00890017  RH  061%=      5-min Rain = 0
KCXS 181430Z 21007KT 09/02 A2994 RMK A01 T00940019  RH  060%=      5-min Rain = 0
KCXS 181435Z 21006KT 10/02 A2995 RMK A01 T00960020  RH  060%=      5-min Rain = 0
KCXS 181440Z 20005KT 10/02 A2995 RMK A01 T01010021  RH  058%=      5-min Rain = 0
KCXS 181445Z 21006KT 11/02 A2995 RMK A01 T01050021  RH  057%=      5-min Rain = 0
KCXS 181450Z 21007KT 11/02 A2995 RMK A01 T01080020  RH  055%=      5-min Rain = 0
KCXS 181455Z 21008KT 11/02 A2994 RMK A01 T01120020  RH  054%=      5-min Rain = 0
KCXS 181500Z 22008KT 12/02 A2995 RMK A01 T01150020  RH  053%=      5-min Rain = 0
KCXS 181505Z 21007KT 12/02 A2994 RMK A01 T01190021  RH  052%=      5-min Rain = 0
KCXS 181510Z 21008KT 12/02 A2995 RMK A01 T01210020  RH  050%=      5-min Rain = 0
KCXS 181515Z 21006KT 13/02 A2995 RMK A01 T01250019  RH  049%=      5-min Rain = 0
KCXS 181520Z 21007KT 13/02 A2995 RMK A01 T01270019  RH  048%=      5-min Rain = 0
KCXS 181525Z 23006KT 13/02 A2996 RMK A01 T01300019  RH  047%=      5-min Rain = 0
KCXS 181530Z 23007KT 14/02 A2996 RMK A01 T01370019  RH  045%=      5-min Rain = 0
KCXS 181535Z 23006KT 14/02 A2995 RMK A01 T01380019  RH  045%=      5-min Rain = 0
KCXS 181540Z 23006KT 15/02 A2995 RMK A01 T01460019  RH  043%=      5-min Rain = 0
KCXS 181545Z 23007KT 15/02 A2995 RMK A01 T01490019  RH  042%=      5-min Rain = 0
KCXS 181550Z 23007KT 15/02 A2995 RMK A01 T01500019  RH  042%=      5-min Rain = 0
KCXS 181555Z 24006KT 15/02 A2995 RMK A01 T01530019  RH  041%=      5-min Rain = 0
KCXS 181600Z 22006KT 15/02 A2995 RMK A01 T01490018  RH  042%=      5-min Rain = 0
KCXS 181605Z 25007KT 15/02 A2995 RMK A01 T01540019  RH  041%=      5-min Rain = 0
KCXS 181610Z 25009KT 15/02 A2994 RMK A01 T01540018  RH  040%=      5-min Rain = 0
KCXS 181615Z 25008KT 16/02 A2994 RMK A01 T01570018  RH  040%=      5-min Rain = 0
KCXS 181620Z 24008KT 16/02 A2994 RMK A01 T01580018  RH  040%=      5-min Rain = 0
KCXS 181625Z 25008KT 16/02 A2994 RMK A01 T01590018  RH  039%=      5-min Rain = 0
KCXS 181630Z 25008KT 16/02 A2994 RMK A01 T01620019  RH  038%=      5-min Rain = 0
KCXS 181635Z 25008KT 16/02 A2994 RMK A01 T01630017  RH  038%=      5-min Rain = 0
KCXS 181640Z 25008KT 17/02 A2994 RMK A01 T01650017  RH  037%=      5-min Rain = 0
KCXS 181645Z 26008KT 17/02 A2994 RMK A01 T01660018  RH  037%=      5-min Rain = 0
KCXS 181650Z 26007KT 17/02 A2994 RMK A01 T01710018  RH  036%=      5-min Rain = 0
KCXS 181655Z 26006KT 17/02 A2994 RMK A01 T01720017  RH  036%=      5-min Rain = 0
KCXS 181700Z 26006KT 18/02 A2993 RMK A01 T01760017  RH  035%=      5-min Rain = 0
KCXS 181705Z 26007KT 18/02 A2993 RMK A01 T01750017  RH  035%=      5-min Rain = 0
KCXS 181710Z 24005G10KT 18/02 A2994 RMK A01 T01780017  RH  034%=      5-min Rain = 0
KCXS 181715Z 25006KT 18/02 A2994 RMK A01 T01800017  RH  034%=      5-min Rain = 0
KCXS 181720Z 24006KT 18/02 A2993 RMK A01 T01840018  RH  033%=      5-min Rain = 0
KCXS 181725Z 27005KT 19/02 A2993 RMK A01 T01890018  RH  032%=      5-min Rain = 0
KCXS 181730Z 26006KT 19/02 A2993 RMK A01 T01890017  RH  032%=      5-min Rain = 0
KCXS 181735Z 26006KT 19/02 A2993 RMK A01 T01910016  RH  032%=      5-min Rain = 0
KCXS 181740Z 27005KT 19/02 A2993 RMK A01 T01920015  RH  031%=      5-min Rain = 0
KCXS 181745Z 28004KT 20/02 A2993 RMK A01 T01970017  RH  031%=      5-min Rain = 0
KCXS 181750Z 27003G8KT 20/02 A2993 RMK A01 T01980016  RH  030%=      5-min Rain = 0
KCXS 181755Z 26005KT 20/01 A2992 RMK A01 T01990014  RH  030%=      5-min Rain = 0
KCXS 181800Z 26005KT 20/01 A2992 RMK A01 T02000013  RH  029%=      5-min Rain = 0
KCXS 181805Z 27004KT 20/01 A2992 RMK A01 T02040013  RH  028%=      5-min Rain = 0
KCXS 181810Z 29004KT 20/01 A2991 RMK A01 T02030013  RH  029%=      5-min Rain = 0
KCXS 181815Z 29005KT 21/01 A2991 RMK A01 T02050014  RH  029%=      5-min Rain = 0
KCXS 181820Z 26003KT 21/01 A2991 RMK A01 T02060012  RH  028%=      5-min Rain = 0
KCXS 181825Z 24004KT 21/01 A299 RMK A01 T02060012  RH  028%=      5-min Rain = 0
KCXS 181830Z 26004KT 21/01 A299 RMK A01 T02070013  RH  028%=      5-min Rain = 0
KCXS 181835Z 29003KT 21/01 A299 RMK A01 T02110013  RH  027%=      5-min Rain = 0
KCXS 181840Z 24003KT 21/01 A299 RMK A01 T02120013  RH  027%=      5-min Rain = 0
KCXS 181845Z 22003KT 22/01 A2989 RMK A01 T02150013  RH  027%=      5-min Rain = 0
KCXS 181850Z 28002KT 21/01 A2989 RMK A01 T02130012  RH  027%=      5-min Rain = 0
KCXS 181855Z 23000KT 21/01 A2989 RMK A01 T02110012  RH  027%=      5-min Rain = 0
KCXS 181900Z 22002KT 22/01 A2988 RMK A01 T02170013  RH  026%=      5-min Rain = 0
KCXS 181905Z 22004KT 22/01 A2988 RMK A01 T02190013  RH  026%=      5-min Rain = 0
KCXS 181910Z 19002KT 22/01 A2988 RMK A01 T02200013  RH  026%=      5-min Rain = 0
KCXS 181915Z 21004KT 22/01 A2988 RMK A01 T02230011  RH  025%=      5-min Rain = 0
KCXS 181920Z 21005KT 22/01 A2988 RMK A01 T02210012  RH  025%=      5-min Rain = 0
KCXS 181925Z 18005KT 23/01 A2988 RMK A01 T02250013  RH  025%=      5-min Rain = 0
KCXS 181930Z 21005KT 23/01 A2988 RMK A01 T02270012  RH  024%=      5-min Rain = 0
KCXS 181935Z 19004KT 23/01 A2987 RMK A01 T02290013  RH  024%=      5-min Rain = 0
KCXS 181940Z 21002KT 22/01 A2987 RMK A01 T02240012  RH  025%=      5-min Rain = 0
KCXS 181945Z 32003KT 22/01 A2987 RMK A01 T02200012  RH  026%=      5-min Rain = 0
KCXS 181950Z 21004KT 23/01 A2987 RMK A01 T02260009  RH  024%=      5-min Rain = 0
KCXS 181955Z 19005KT 23/01 A2986 RMK A01 T02310007  RH  023%=      5-min Rain = 0
KCXS 182000Z 21005KT 23/01 A2986 RMK A01 T02320006  RH  023%=      5-min Rain = 0
KCXS 182005Z 22005G11KT 23/01 A2986 RMK A01 T02330005  RH  023%=      5-min Rain = 0
KCXS 182010Z 21006KT 24/01 A2985 RMK A01 T02360005  RH  022%=      5-min Rain = 0
KCXS 182015Z 22003KT 24/01 A2985 RMK A01 T02360006  RH  022%=      5-min Rain = 0
KCXS 182020Z 17004KT 24/01 A2985 RMK A01 T02360005  RH  022%=      5-min Rain = 0
KCXS 182025Z 21004KT 24/01 A2985 RMK A01 T02360005  RH  022%=      5-min Rain = 0
KCXS 182030Z 21004KT 24/00 A2985 RMK A01 T02410004  RH  021%=      5-min Rain = 0
KCXS 182035Z 20005KT 24/01 A2985 RMK A01 T02430005  RH  021%=      5-min Rain = 0
KCXS 182040Z 20004KT 24/01 A2985 RMK A01 T02410005  RH  021%=      5-min Rain = 0
KCXS 182045Z 28004KT 24/00 A2985 RMK A01 T02380003  RH  021%=      5-min Rain = 0
KCXS 182050Z 21004KT 24/01 A2985 RMK A01 T02380005  RH  022%=      5-min Rain = 0
KCXS 182055Z 21004KT 24/00 A2985 RMK A01 T02400004  RH  021%=      5-min Rain = 0
KCXS 182100Z 19004KT 24/01 A2984 RMK A01 T02400005  RH  022%=      5-min Rain = 0
KCXS 182105Z 22004KT 24/01 A2984 RMK A01 T02410005  RH  021%=      5-min Rain = 0
KCXS 182110Z 21004KT 24/01 A2984 RMK A01 T02410006  RH  022%=      5-min Rain = 0
KCXS 182115Z 23004KT 24/01 A2984 RMK A01 T02430006  RH  021%=      5-min Rain = 0
KCXS 182120Z 20002KT 25/01 A2984 RMK A01 T02460007  RH  021%=      5-min Rain = 0
KCXS 182125Z 23004KT 25/01 A2984 RMK A01 T02450008  RH  021%=      5-min Rain = 0
KCXS 182130Z 19004KT 24/01 A2985 RMK A01 T02420009  RH  022%=      5-min Rain = 0
KCXS 182135Z 22004KT 25/01 A2985 RMK A01 T02460009  RH  021%=      5-min Rain = 0
KCXS 182140Z 24004KT 25/01 A2985 RMK A01 T02450005  RH  021%=      5-min Rain = 0
KCXS 182145Z 21005KT 25/01 A2985 RMK A01 T02450005  RH  021%=      5-min Rain = 0
KCXS 182150Z 20003KT 24/01 A2985 RMK A01 T02440005  RH  021%=      5-min Rain = 0
KCXS 182155Z 19004KT 25/01 A2985 RMK A01 T02460006  RH  021%=      5-min Rain = 0
KCXS 182200Z 18003KT 25/01 A2986 RMK A01 T02460007  RH  021%=      5-min Rain = 0
KCXS 182205Z 21003KT 25/01 A2985 RMK A01 T02470005  RH  021%=      5-min Rain = 0
KCXS 182210Z 22002KT 25/00 A2985 RMK A01 T02460004  RH  021%=      5-min Rain = 0
KCXS 182215Z 20003KT 24/01 A2985 RMK A01 T02440005  RH  021%=      5-min Rain = 0
KCXS 182220Z 21003KT 24/01 A2985 RMK A01 T02440005  RH  021%=      5-min Rain = 0
KCXS 182225Z 21003KT 25/00 A2985 RMK A01 T02460004  RH  021%=      5-min Rain = 0
KCXS 182230Z 19003KT 25/00 A2985 RMK A01 T02450002  RH  020%=      5-min Rain = 0
KCXS 182235Z 22004KT 24/00 A2985 RMK A01 T02440001  RH  020%=      5-min Rain = 0
KCXS 182240Z 23004KT 24/00 A2985 RMK A01 T02420001  RH  021%=      5-min Rain = 0
KCXS 182245Z 23003KT 24/00 A2985 RMK A01 T02410001  RH  021%=      5-min Rain = 0
KCXS 182250Z 22004KT 24/00 A2985 RMK A01 T02400000  RH  021%=      5-min Rain = 0
KCXS 182255Z 21004KT 24/00 A2985 RMK A01 T023600-0  RH  021%=      5-min Rain = 0
KCXS 182300Z 20004KT 23/00 A2985 RMK A01 T02330000  RH  022%=      5-min Rain = 0
KCXS 182305Z 19005KT 23/M00 A2985 RMK A01 T02301001  RH  022%=      5-min Rain = 0
KCXS 182310Z 19005KT 23/M00 A2985 RMK A01 T02251001  RH  022%=      5-min Rain = 0
KCXS 182315Z 19004KT 22/M00 A2986 RMK A01 T02221002  RH  023%=      5-min Rain = 0
KCXS 182320Z 19005KT 22/M00 A2986 RMK A01 T02191002  RH  023%=      5-min Rain = 0
KCXS 182325Z 19006KT 21/M00 A2986 RMK A01 T02111001  RH  024%=      5-min Rain = 0
KCXS 182330Z 18006KT 21/M00 A2986 RMK A01 T02061001  RH  025%=      5-min Rain = 0
KCXS 182335Z 18005KT 20/M00 A2986 RMK A01 T02041001  RH  026%=      5-min Rain = 0
KCXS 182340Z 19005KT 20/00 A2986 RMK A01 T020300-0  RH  026%=      5-min Rain = 0
KCXS 182345Z 19004KT 20/00 A2986 RMK A01 T02010001  RH  026%=      5-min Rain = 0
KCXS 182350Z 19003KT 20/00 A2987 RMK A01 T02030002  RH  026%=      5-min Rain = 0
KCXS 182355Z 18002KT 20/00 A2987 RMK A01 T02020002  RH  027%=      5-min Rain = 0
KCXS 190000Z 18002KT 20/00 A2987 RMK A01 T02020002  RH  027%=      5-min Rain = 0
KCXS 190005Z 18003KT 21/00 A2987 RMK A01 T02050004  RH  026%=      5-min Rain = 0
KCXS 190010Z 18003KT 21/00 A2987 RMK A01 T02080004  RH  026%=      5-min Rain = 0
KCXS 190015Z 18003KT 21/00 A2988 RMK A01 T02070004  RH  026%=      5-min Rain = 0
KCXS 190020Z 19003KT 21/00 A2988 RMK A01 T02070004  RH  026%=      5-min Rain = 0
KCXS 190025Z 20003KT 21/00 A2988 RMK A01 T02060002  RH  026%=      5-min Rain = 0
KCXS 190030Z 21002KT 20/00 A2988 RMK A01 T02040001  RH  026%=      5-min Rain = 0
KCXS 190035Z 21002KT 20/00 A2988 RMK A01 T020000-0  RH  026%=      5-min Rain = 0
KCXS 190040Z 21003KT 20/M00 A2988 RMK A01 T02011001  RH  026%=      5-min Rain = 0
KCXS 190045Z 20004KT 20/M00 A2989 RMK A01 T02031001  RH  026%=      5-min Rain = 0
KCXS 190050Z 19003KT 20/M00 A2989 RMK A01 T02031002  RH  026%=      5-min Rain = 0
KCXS 190055Z 19004KT 20/M00 A2989 RMK A01 T02021002  RH  026%=      5-min Rain = 0
KCXS 190100Z 20004KT 20/M00 A2989 RMK A01 T02021002  RH  026%=      5-min Rain = 0
KCXS 190105Z 20004KT 21/M00 A2989 RMK A01 T02051002  RH  025%=      5-min Rain = 0
KCXS 190110Z 20003KT 21/M00 A299 RMK A01 T02061003  RH  025%=      5-min Rain = 0
KCXS 190115Z 22004KT 21/M00 A299 RMK A01 T02101004  RH  024%=      5-min Rain = 0
KCXS 190120Z 22004KT 21/M01 A299 RMK A01 T02091005  RH  024%=      5-min Rain = 0
KCXS 190125Z 22003KT 21/M01 A299 RMK A01 T02091005  RH  024%=      5-min Rain = 0
KCXS 190130Z 21004KT 21/M00 A2991 RMK A01 T02091004  RH  024%=      5-min Rain = 0
KCXS 190135Z 20004KT 20/M00 A2991 RMK A01 T02021004  RH  025%=      5-min Rain = 0
KCXS 190140Z 21005KT 20/M00 A2991 RMK A01 T01971004  RH  026%=      5-min Rain = 0
KCXS 190145Z 34004KT 18/M00 A2992 RMK A01 T01761002  RH  030%=      5-min Rain = 0
KCXS 190150Z 33006KT 16/M00 A2992 RMK A01 T01551002  RH  035%=      5-min Rain = 0
KCXS 190155Z 33004KT 16/M00 A2991 RMK A01 T01621003  RH  033%=      5-min Rain = 0
KCXS 190200Z 33003KT 17/M00 A2991 RMK A01 T01711004  RH  031%=      5-min Rain = 0
KCXS 190205Z 31004KT 17/M01 A2991 RMK A01 T01741005  RH  030%=      5-min Rain = 0
KCXS 190210Z 29004KT 17/M01 A2991 RMK A01 T01731006  RH  030%=      5-min Rain = 0
KCXS 190215Z 27003KT 18/M01 A2991 RMK A01 T01751006  RH  030%=      5-min Rain = 0
KCXS 190220Z 26003KT 18/M01 A2991 RMK A01 T01801006  RH  029%=      5-min Rain = 0
KCXS 190225Z 25003KT 18/M01 A2992 RMK A01 T01831006  RH  028%=      5-min Rain = 0
KCXS 190230Z 24005KT 18/M01 A2992 RMK A01 T01831006  RH  028%=      5-min Rain = 0
KCXS 190235Z 24005KT 18/M00 A2992 RMK A01 T01781004  RH  029%=      5-min Rain = 0
KCXS 190240Z 24005KT 18/M00 A2991 RMK A01 T01801004  RH  029%=      5-min Rain = 0
KCXS 190245Z 24005KT 18/M00 A2991 RMK A01 T01821003  RH  029%=      5-min Rain = 0
KCXS 190250Z 24005KT 18/M00 A2991 RMK A01 T01801003  RH  029%=      5-min Rain = 0
KCXS 190255Z 23005KT 17/M00 A2992 RMK A01 T01731004  RH  030%=      5-min Rain = 0
KCXS 190300Z 24006KT 17/M00 A2992 RMK A01 T01741004  RH  030%=      5-min Rain = 0
KCXS 190305Z 24006KT 18/M00 A2992 RMK A01 T01771003  RH  030%=      5-min Rain = 0
KCXS 190310Z 24007KT 18/M00 A2992 RMK A01 T01751003  RH  030%=      5-min Rain = 0
KCXS 190315Z 24008KT 17/M00 A2992 RMK A01 T01731001  RH  031%=      5-min Rain = 0
KCXS 190320Z 24008KT 17/M00 A2992 RMK A01 T01731001  RH  031%=      5-min Rain = 0
KCXS 190325Z 24007KT 18/M00 A2992 RMK A01 T01751001  RH  031%=      5-min Rain = 0
KCXS 190330Z 24007KT 18/M00 A2992 RMK A01 T01761002  RH  030%=      5-min Rain = 0
KCXS 190335Z 25007KT 18/M00 A2993 RMK A01 T01751001  RH  031%=      5-min Rain = 0
KCXS 190340Z 25006KT 17/M00 A2993 RMK A01 T01731001  RH  031%=      5-min Rain = 0
KCXS 190345Z 23007KT 17/M00 A2993 RMK A01 T01701001  RH  032%=      5-min Rain = 0
KCXS 190350Z 23006KT 17/M00 A2993 RMK A01 T01701002  RH  032%=      5-min Rain = 0
KCXS 190355Z 25006KT 18/M00 A2993 RMK A01 T01761003  RH  030%=      5-min Rain = 0
KCXS 190400Z 26005KT 18/M00 A2993 RMK A01 T01761003  RH  030%=      5-min Rain = 0
KCXS 190405Z 27005KT 17/M00 A2993 RMK A01 T01741003  RH  030%=      5-min Rain = 0
KCXS 190410Z 27004KT 17/M00 A2993 RMK A01 T01731003  RH  031%=      5-min Rain = 0
KCXS 190415Z 29004KT 17/M00 A2993 RMK A01 T01731004  RH  030%=      5-min Rain = 0
KCXS 190420Z 31005KT 17/M00 A2993 RMK A01 T01711003  RH  031%=      5-min Rain = 0
KCXS 190425Z 33004KT 14/M00 A2993 RMK A01 T01411002  RH  038%=      5-min Rain = 0
KCXS 190430Z 30005KT 13/M00 A2993 RMK A01 T01341002  RH  040%=      5-min Rain = 0
KCXS 190435Z 29006KT 13/M00 A2993 RMK A01 T01341002  RH  040%=      5-min Rain = 0
KCXS 190440Z 29006KT 13/M00 A2993 RMK A01 T01321003  RH  040%=      5-min Rain = 0
KCXS 190445Z 28007KT 13/M00 A2993 RMK A01 T01311002  RH  040%=      5-min Rain = 0
KCXS 190450Z 28007KT 12/M00 A2993 RMK A01 T01241001  RH  043%=      5-min Rain = 0
KCXS 190455Z 28007KT 12/M00 A2993 RMK A01 T01231002  RH  043%=      5-min Rain = 0
KCXS 190500Z 28007KT 12/M00 A2993 RMK A01 T01231003  RH  042%=      5-min Rain = 0
KCXS 190505Z 29007KT 12/M00 A2993 RMK A01 T01191003  RH  043%=      5-min Rain = 0
KCXS 190510Z 29007KT 12/M00 A2993 RMK A01 T01181004  RH  043%=      5-min Rain = 0
KCXS 190515Z 29008KT 12/M00 A2993 RMK A01 T01191004  RH  043%=      5-min Rain = 0
KCXS 190520Z 29008KT 12/M00 A2993 RMK A01 T01201004  RH  043%=      5-min Rain = 0
KCXS 190525Z 30007KT 12/M01 A2993 RMK A01 T01211006  RH  042%=      5-min Rain = 0
KCXS 190530Z 30007KT 12/M01 A2993 RMK A01 T01211006  RH  042%=      5-min Rain = 0
KCXS 190535Z 29007KT 12/M01 A2993 RMK A01 T01191006  RH  042%=      5-min Rain = 0
KCXS 190540Z 29007KT 12/M01 A2993 RMK A01 T01181006  RH  043%=      5-min Rain = 0
KCXS 190545Z 30006KT 12/M01 A2993 RMK A01 T01211006  RH  042%=      5-min Rain = 0
KCXS 190550Z 32006KT 12/M01 A2993 RMK A01 T01241007  RH  041%=      5-min Rain = 0
KCXS 190555Z 33006KT 13/M01 A2993 RMK A01 T01261006  RH  041%=      5-min Rain = 0

Page generated in 0.009 seconds.